Time;durP1;ratioP1;P1;durP2;ratioP2;P2;SDS_P1;SDS_P2;PMS_P1;PMS_P2;Temp;Humidity;BMP_temperature;BMP_pressure;BME280_temperature;BME280_humidity;BME280_pressure;Samples;Min_cycle;Max_cycle;Signal;HPM_P1;HPM_P2
2021/01/03 00:02:20;;;;;;;31.73;14.30;;;;;;;6.23;71.94;100381.50;8657527;33;20247;-72
2021/01/03 00:07:23;;;;;;;35.13;15.27;;;;;;;6.19;71.85;100385.22;8658248;33;20180;-71
2021/01/03 00:12:25;;;;;;;34.83;15.32;;;;;;;6.16;71.81;100376.56;8658021;33;20238;-72
2021/01/03 00:17:28;;;;;;;31.67;14.15;;;;;;;6.12;71.50;100372.34;8657108;33;22108;-71
2021/01/03 00:22:31;;;;;;;31.73;14.18;;;;;;;6.10;71.17;100372.41;8657427;33;20954;-72
2021/01/03 00:27:33;;;;;;;35.80;14.77;;;;;;;6.07;71.13;100375.22;8657634;33;20195;-73
2021/01/03 00:32:37;;;;;;;31.17;14.75;;;;;;;6.10;71.00;100380.38;8648618;33;20287;-71
2021/01/03 00:37:39;;;;;;;32.67;14.55;;;;;;;6.10;71.00;100376.84;8650157;33;20262;-72
2021/01/03 00:42:42;;;;;;;34.17;15.27;;;;;;;6.14;70.94;100375.75;8656982;33;21616;-71
2021/01/03 00:47:46;;;;;;;44.72;16.88;;;;;;;6.11;70.92;100368.81;8662259;33;21051;-72
2021/01/03 00:52:48;;;;;;;39.22;15.15;;;;;;;6.13;70.96;100371.41;8662137;33;20133;-72
2021/01/03 00:57:50;;;;;;;39.95;16.20;;;;;;;6.09;70.68;100367.16;8661847;33;20172;-72
2021/01/03 01:02:53;;;;;;;33.28;14.05;;;;;;;6.03;70.26;100370.13;8661640;33;20196;-72
2021/01/03 01:07:56;;;;;;;30.27;13.07;;;;;;;6.00;69.92;100371.13;8661711;33;20198;-72
2021/01/03 01:13:01;;;;;;;41.47;16.48;;;;;;;6.03;69.83;100373.63;8661391;33;20282;-72
2021/01/03 01:18:05;;;;;;;24.25;11.77;;;;;;;5.96;69.65;100375.72;8661688;33;21456;-72
2021/01/03 01:23:08;;;;;;;30.27;12.63;;;;;;;5.90;69.58;100380.44;8661390;33;20489;-72
2021/01/03 01:28:11;;;;;;;24.08;11.00;;;;;;;5.90;68.97;100381.31;8661729;33;20214;-72
2021/01/03 01:33:14;;;;;;;24.00;10.48;;;;;;;5.93;68.60;100380.28;8661324;33;20211;-72
2021/01/03 01:38:16;;;;;;;22.05;10.60;;;;;;;5.94;67.83;100380.25;8661063;33;20269;-72
2021/01/03 01:43:19;;;;;;;23.65;10.45;;;;;;;5.98;66.87;100381.81;8660719;33;20486;-72
2021/01/03 01:48:26;;;;;;;19.45;8.55;;;;;;;6.00;65.96;100369.31;8660489;33;20195;-72
2021/01/03 01:53:34;;;;;;;14.10;7.22;;;;;;;6.00;64.56;100369.31;8660491;33;20248;-71
2021/01/03 01:58:48;;;;;;;8.15;5.22;;;;;;;6.01;62.19;100368.41;8659741;33;20196;-72
2021/01/03 02:03:57;;;;;;;10.35;5.15;;;;;;;6.01;61.10;100372.88;8659770;33;20447;-71
2021/01/03 02:09:08;;;;;;;9.88;4.80;;;;;;;6.06;60.30;100377.94;8659204;33;20149;-72
2021/01/03 02:14:12;;;;;;;7.70;4.55;;;;;;;6.03;59.60;100367.47;8660660;33;20188;-72
2021/01/03 02:19:21;;;;;;;5.88;4.07;;;;;;;6.10;59.51;100368.91;8659290;33;20228;-71
2021/01/03 02:24:34;;;;;;;5.22;3.92;;;;;;;6.13;59.43;100363.44;8660094;33;20223;-71
2021/01/03 02:29:39;;;;;;;10.18;4.72;;;;;;;6.13;59.35;100361.66;8659477;33;20238;-72
2021/01/03 02:34:49;;;;;;;7.32;4.22;;;;;;;6.16;59.45;100364.16;8659985;33;20160;-72
2021/01/03 02:39:56;;;;;;;7.80;4.68;;;;;;;6.18;59.82;100366.75;8657951;33;20145;-72
2021/01/03 02:45:03;;;;;;;7.72;4.85;;;;;;;6.15;60.33;100351.81;8660619;33;20389;-72
2021/01/03 02:50:07;;;;;;;9.40;5.60;;;;;;;6.14;61.04;100357.19;8659125;33;20310;-72
2021/01/03 02:55:12;;;;;;;13.27;7.10;;;;;;;6.07;62.28;100345.19;8659184;33;20194;-72
2021/01/03 03:00:23;;;;;;;14.43;7.78;;;;;;;5.99;63.00;100342.91;8658786;33;20731;-72
2021/01/03 03:05:27;;;;;;;12.98;7.10;;;;;;;5.95;63.50;100330.72;8657678;33;20156;-72
2021/01/03 03:10:30;;;;;;;15.23;7.97;;;;;;;5.91;63.50;100332.63;8659354;33;20315;-72
2021/01/03 03:15:33;;;;;;;15.15;8.00;;;;;;;5.87;63.15;100324.88;8659142;33;20159;-72
2021/01/03 03:20:36;;;;;;;13.60;6.78;;;;;;;5.84;63.27;100323.25;8662490;33;20631;-71
2021/01/03 03:25:39;;;;;;;16.92;7.93;;;;;;;5.82;63.57;100326.91;8661647;33;20472;-71
2021/01/03 03:30:42;;;;;;;16.08;7.68;;;;;;;5.82;63.58;100332.22;8659109;33;21522;-72
2021/01/03 03:35:45;;;;;;;14.30;7.45;;;;;;;5.83;63.72;100326.84;8658810;33;22258;-72
2021/01/03 03:40:48;;;;;;;13.48;7.38;;;;;;;5.83;63.84;100332.13;8657981;33;20751;-71
2021/01/03 03:45:51;;;;;;;15.63;7.40;;;;;;;5.77;63.81;100337.72;8658577;33;20255;-72
2021/01/03 03:50:54;;;;;;;22.33;7.75;;;;;;;5.79;63.38;100326.13;8658062;33;20493;-71
2021/01/03 03:55:56;;;;;;;19.50;8.07;;;;;;;5.77;63.85;100327.97;8658111;33;20149;-71
2021/01/03 04:00:59;;;;;;;12.82;6.38;;;;;;;5.75;63.21;100323.69;8657427;33;20191;-71
2021/01/03 04:06:02;;;;;;;12.77;6.57;;;;;;;5.74;63.01;100325.47;8681651;33;20149;-72
2021/01/03 04:11:05;;;;;;;10.50;5.72;;;;;;;5.72;62.39;100322.03;8716086;33;20532;-72
2021/01/03 04:16:08;;;;;;;9.45;5.43;;;;;;;5.69;62.27;100324.84;8715118;33;20194;-71
2021/01/03 04:21:11;;;;;;;9.10;6.03;;;;;;;5.72;62.25;100323.84;8719947;33;20183;-69
2021/01/03 04:26:18;;;;;;;12.27;6.53;;;;;;;5.76;62.14;100328.06;8696129;33;20975;-71
2021/01/03 04:31:22;;;;;;;12.43;5.83;;;;;;;5.74;61.94;100322.84;8719661;33;20216;-71
2021/01/03 04:36:25;;;;;;;11.80;5.53;;;;;;;5.74;61.89;100328.13;8695301;33;20424;-71
2021/01/03 04:41:33;;;;;;;7.90;5.25;;;;;;;5.73;61.88;100328.19;8719347;33;20877;-71
2021/01/03 04:46:40;;;;;;;10.25;4.95;;;;;;;5.68;62.08;100328.44;8719932;33;20183;-70
2021/01/03 04:52:24;;;;;;;8.40;5.25;;;;;;;5.67;61.93;100339.09;8719343;33;20856;-71
2021/01/03 04:57:40;;;;;;;8.38;4.55;;;;;;;5.72;61.77;100337.94;8718949;33;20673;-71
2021/01/03 05:03:44;;;;;;;10.15;4.95;;;;;;;5.71;61.92;100333.59;8718974;33;20183;-71
2021/01/03 05:08:50;;;;;;;7.88;4.10;;;;;;;5.69;61.55;100339.91;8719012;33;20441;-71
2021/01/03 05:14:06;;;;;;;8.20;4.45;;;;;;;5.73;61.71;100347.63;8719212;33;20148;-71
2021/01/03 05:19:09;;;;;;;7.13;3.83;;;;;;;5.65;61.45;100336.53;8718602;33;20436;-71
2021/01/03 05:24:13;;;;;;;9.15;4.38;;;;;;;5.71;61.55;100336.25;8718529;33;20657;-71
2021/01/03 05:29:24;;;;;;;9.60;5.30;;;;;;;5.73;61.23;100349.41;8718184;33;20257;-71
2021/01/03 05:34:36;;;;;;;7.97;3.97;;;;;;;5.74;61.74;100348.50;8718537;33;21663;-70
2021/01/03 05:39:40;;;;;;;9.35;4.82;;;;;;;5.78;61.88;100352.69;8718093;33;20144;-71
2021/01/03 05:44:48;;;;;;;9.23;5.00;;;;;;;5.72;62.17;100356.50;8718758;33;20124;-70
2021/01/03 05:50:26;;;;;;;8.80;4.70;;;;;;;5.71;61.80;100364.53;8718241;33;20936;-72
2021/01/03 05:55:30;;;;;;;8.53;4.53;;;;;;;5.71;62.28;100365.41;8717974;33;20535;-70
2021/01/03 06:00:33;;;;;;;8.40;4.35;;;;;;;5.68;62.23;100364.69;8717473;33;20176;-72
2021/01/03 06:05:44;;;;;;;7.40;4.63;;;;;;;5.72;62.32;100377.72;8718668;33;20174;-72
2021/01/03 06:10:47;;;;;;;7.25;3.88;;;;;;;5.70;62.56;100365.47;8717936;33;20281;-72
2021/01/03 06:15:56;;;;;;;7.30;3.85;;;;;;;5.68;62.58;100370.84;8717640;33;20222;-71
2021/01/03 06:20:59;;;;;;;5.80;3.90;;;;;;;5.70;62.62;100378.72;8717404;33;20191;-71
2021/01/03 06:26:12;;;;;;;7.70;3.87;;;;;;;5.66;62.74;100375.34;8717565;33;20761;-71
2021/01/03 06:31:42;;;;;;;6.80;4.05;;;;;;;5.67;62.64;100374.41;8716997;33;20741;-71
2021/01/03 06:36:58;;;;;;;7.55;3.65;;;;;;;5.73;62.76;100371.50;8717314;33;20526;-71
2021/01/03 06:42:05;;;;;;;7.40;4.18;;;;;;;5.69;62.41;100371.69;8716483;33;20320;-69
2021/01/03 06:48:14;;;;;;;4.25;3.33;;;;;;;5.66;62.43;100372.69;8717515;33;20167;-71
2021/01/03 06:54:17;;;;;;;6.77;3.97;;;;;;;5.68;62.72;100365.53;8716808;33;20743;-71
2021/01/03 06:59:46;;;;;;;5.63;3.38;;;;;;;5.65;62.81;100376.28;8715722;33;20477;-71
2021/01/03 07:04:48;;;;;;;6.93;3.88;;;;;;;5.67;62.97;100373.56;8717040;33;20689;-71
2021/01/03 07:10:06;;;;;;;6.23;3.37;;;;;;;5.65;63.32;100376.28;8715856;33;21622;-71
2021/01/03 07:15:15;;;;;;;7.33;3.63;;;;;;;5.63;63.41;100380.81;8716519;33;20753;-71
2021/01/03 07:20:26;;;;;;;7.95;3.85;;;;;;;5.68;63.45;100381.44;8715671;33;20510;-70
2021/01/03 07:25:43;;;;;;;6.85;4.20;;;;;;;5.68;63.17;100383.25;8716568;33;20333;-70
2021/01/03 07:31:03;;;;;;;7.43;4.07;;;;;;;5.63;63.01;100382.59;8715649;33;20737;-72
2021/01/03 07:36:48;;;;;;;7.30;4.37;;;;;;;5.69;62.75;100377.00;8715770;33;20388;-72
2021/01/03 07:42:17;;;;;;;7.13;3.53;;;;;;;5.63;62.87;100396.69;8715265;33;20475;-72
2021/01/03 07:47:41;;;;;;;6.65;3.80;;;;;;;5.66;62.99;100393.06;8690948;33;20155;-72
2021/01/03 07:52:44;;;;;;;7.00;4.30;;;;;;;5.65;63.39;100393.97;8694399;33;20576;-72
2021/01/03 07:57:56;;;;;;;5.47;3.57;;;;;;;5.67;63.54;100400.06;8721112;33;20207;-71
2021/01/03 08:03:04;;;;;;;8.57;4.53;;;;;;;5.68;63.62;100404.47;8719485;33;20882;-72
2021/01/03 08:08:15;;;;;;;6.23;4.00;;;;;;;5.70;64.81;100408.72;8700129;33;20683;-71
2021/01/03 08:13:24;;;;;;;8.45;4.45;;;;;;;5.99;63.36;100406.53;8720248;33;20246;-71
2021/01/03 08:18:30;;;;;;;4.18;3.35;;;;;;;6.00;62.36;100405.59;8720770;33;20159;-71
2021/01/03 08:23:35;;;;;;;7.13;4.30;;;;;;;6.06;62.44;100407.09;8724991;33;20557;-71
2021/01/03 08:28:54;;;;;;;5.47;3.53;;;;;;;6.08;62.00;100410.56;8778632;33;20228;-71
2021/01/03 08:33:59;;;;;;;7.88;4.30;;;;;;;6.15;62.65;100412.00;8778633;33;20185;-70
2021/01/03 08:39:07;;;;;;;6.93;3.92;;;;;;;6.14;61.52;100418.22;8777664;33;20542;-70
2021/01/03 08:44:11;;;;;;;8.65;4.28;;;;;;;5.96;61.34;100410.22;8778654;33;21657;-71
2021/01/03 08:49:13;;;;;;;8.88;4.45;;;;;;;6.01;61.87;100412.66;8778035;33;20167;-71
2021/01/03 08:54:16;;;;;;;9.75;3.97;;;;;;;5.80;61.82;100412.69;8778189;33;20132;-70
2021/01/03 08:59:19;;;;;;;6.55;4.35;;;;;;;5.82;62.03;100411.75;8777375;33;20201;-71
2021/01/03 09:04:23;;;;;;;7.80;4.72;;;;;;;5.92;62.23;100405.06;8777327;33;20221;-70
2021/01/03 09:09:29;;;;;;;8.77;5.43;;;;;;;5.85;63.29;100422.22;8728695;33;20189;-71
2021/01/03 09:14:37;;;;;;;10.73;6.10;;;;;;;5.78;63.62;100414.53;8777077;33;20594;-69
2021/01/03 09:19:59;;;;;;;9.87;5.77;;;;;;;5.72;63.41;100430.72;8776944;33;20194;-70
2021/01/03 09:25:18;;;;;;;10.60;5.13;;;;;;;5.91;63.32;100430.75;8776900;33;20575;-72
2021/01/03 09:30:32;;;;;;;11.43;6.00;;;;;;;5.90;63.39;100426.38;8776786;33;20413;-72
2021/01/03 09:35:53;;;;;;;9.45;5.38;;;;;;;5.92;63.38;100429.78;8776940;33;20248;-72
2021/01/03 09:41:12;;;;;;;8.93;5.45;;;;;;;5.96;63.60;100433.22;8776430;33;20238;-72
2021/01/03 09:46:23;;;;;;;13.67;5.37;;;;;;;6.00;63.42;100430.31;8776429;33;20740;-71
2021/01/03 09:51:33;;;;;;;10.63;6.50;;;;;;;5.91;63.87;100433.38;8775545;33;20186;-71
2021/01/03 09:56:38;;;;;;;10.88;6.03;;;;;;;5.88;64.65;100430.03;8776257;33;20183;-71
2021/01/03 10:01:43;;;;;;;13.30;6.68;;;;;;;5.91;64.79;100432.53;8776077;33;20648;-71
2021/01/03 10:06:49;;;;;;;11.27;6.75;;;;;;;5.94;65.00;100435.94;8776332;33;20680;-71
2021/01/03 10:11:53;;;;;;;12.93;7.47;;;;;;;5.94;65.30;100433.28;8775852;33;20533;-71
2021/01/03 10:16:57;;;;;;;17.17;7.82;;;;;;;5.93;65.73;100433.34;8775828;33;21137;-71
2021/01/03 10:21:59;;;;;;;20.35;7.97;;;;;;;5.82;66.17;100425.03;8736950;33;20642;-71
2021/01/03 10:27:16;;;;;;;21.80;9.93;;;;;;;5.75;66.80;100419.97;8716895;33;20434;-71
2021/01/03 10:32:19;;;;;;;20.63;9.18;;;;;;;5.70;66.94;100421.97;8716539;33;20172;-72
2021/01/03 10:37:22;;;;;;;19.23;8.68;;;;;;;5.83;67.09;100416.97;8716089;33;20454;-71
2021/01/03 10:42:24;;;;;;;17.80;7.90;;;;;;;5.88;66.69;100412.31;8716332;33;20176;-72
2021/01/03 10:47:30;;;;;;;18.70;9.27;;;;;;;5.82;67.11;100412.63;8715665;33;20299;-72
2021/01/03 10:52:33;;;;;;;23.90;9.53;;;;;;;5.82;67.52;100407.31;8716380;33;20531;-72
2021/01/03 10:57:35;;;;;;;16.85;7.15;;;;;;;5.80;67.54;100410.03;8714918;33;20694;-72
2021/01/03 11:02:39;;;;;;;23.20;9.82;;;;;;;5.86;68.02;100400.91;8714522;33;20239;-71
2021/01/03 11:07:41;;;;;;;19.47;10.43;;;;;;;5.85;68.46;100404.50;8715465;33;20599;-72
2021/01/03 11:12:43;;;;;;;16.27;8.73;;;;;;;5.79;69.35;100397.72;8715981;33;20187;-72
2021/01/03 11:17:48;;;;;;;21.02;8.68;;;;;;;5.69;69.86;100388.47;8715613;33;20259;-70
2021/01/03 11:22:52;;;;;;;17.42;7.63;;;;;;;5.67;70.01;100387.66;8714423;33;20591;-71
2021/01/03 11:27:54;;;;;;;17.15;8.32;;;;;;;5.69;70.56;100382.31;8713670;33;20242;-72
2021/01/03 11:32:57;;;;;;;18.63;8.45;;;;;;;5.69;70.26;100377.84;8715857;33;20642;-71
2021/01/03 11:38:00;;;;;;;22.17;9.25;;;;;;;5.79;70.28;100373.84;8713779;33;20202;-72
2021/01/03 11:43:03;;;;;;;19.45;9.13;;;;;;;5.79;69.92;100370.34;8712327;33;20152;-72
2021/01/03 11:48:07;;;;;;;14.50;7.95;;;;;;;5.85;69.78;100366.53;8709277;33;20270;-71
2021/01/03 11:53:09;;;;;;;17.15;9.10;;;;;;;5.84;69.55;100375.41;8688746;33;20144;-72
2021/01/03 11:58:11;;;;;;;15.02;7.50;;;;;;;5.98;69.21;100365.06;8712478;33;20853;-72
2021/01/03 12:03:14;;;;;;;17.60;7.55;;;;;;;6.13;69.34;100363.44;8712568;33;20442;-72
2021/01/03 12:08:17;;;;;;;12.37;6.33;;;;;;;6.02;68.52;100358.66;8688652;33;20848;-72
2021/01/03 12:13:19;;;;;;;14.27;7.15;;;;;;;5.84;68.17;100351.53;8712734;33;20283;-72
2021/01/03 12:18:22;;;;;;;10.10;5.10;;;;;;;5.92;69.15;100344.09;8719013;33;20183;-71
2021/01/03 12:23:25;;;;;;;8.85;5.60;;;;;;;5.80;69.68;100343.75;8716749;33;20183;-72
2021/01/03 12:28:28;;;;;;;8.53;4.83;;;;;;;5.74;68.81;100346.69;8718687;33;20244;-72
2021/01/03 12:33:31;;;;;;;11.93;5.80;;;;;;;5.71;69.82;100351.28;8712435;33;20675;-72
2021/01/03 12:38:34;;;;;;;10.83;5.00;;;;;;;5.58;70.93;100349.19;8709477;33;20282;-71
2021/01/03 12:43:37;;;;;;;11.47;5.17;;;;;;;5.50;71.47;100346.03;8692301;33;20211;-71
2021/01/03 12:48:42;;;;;;;12.63;5.85;;;;;;;5.59;73.39;100347.41;8718328;33;20645;-72
2021/01/03 12:53:44;;;;;;;11.57;6.00;;;;;;;5.40;73.82;100342.09;8719076;33;20227;-71
2021/01/03 12:58:47;;;;;;;11.67;5.97;;;;;;;5.28;74.87;100326.78;8718822;33;20203;-72
2021/01/03 13:03:50;;;;;;;11.87;5.50;;;;;;;5.37;75.67;100333.44;8718244;33;20357;-73
2021/01/03 13:08:53;;;;;;;14.30;5.87;;;;;;;5.41;76.11;100325.28;8719280;33;20243;-72
2021/01/03 13:13:55;;;;;;;18.43;8.50;;;;;;;5.37;76.47;100325.50;8719049;33;20333;-73
2021/01/03 13:18:59;;;;;;;28.30;12.27;;;;;;;5.39;77.32;100318.34;8718750;33;21264;-73
2021/01/03 13:24:01;;;;;;;12.40;6.60;;;;;;;5.38;78.04;100317.47;8719323;33;20179;-72
2021/01/03 13:29:04;;;;;;;14.70;6.63;;;;;;;5.13;77.58;100323.91;8718093;33;20197;-72
2021/01/03 13:34:07;;;;;;;19.37;8.07;;;;;;;5.07;78.23;100326.84;8718727;33;20160;-72
2021/01/03 13:39:11;;;;;;;11.77;6.40;;;;;;;4.95;78.20;100337.09;8717932;33;20277;-71
2021/01/03 13:44:14;;;;;;;18.03;9.07;;;;;;;4.92;78.88;100345.19;8693219;33;20704;-71
2021/01/03 13:49:17;;;;;;;14.03;7.47;;;;;;;4.89;79.03;100344.38;8693256;33;20221;-71
2021/01/03 13:54:20;;;;;;;10.17;6.30;;;;;;;4.87;79.23;100350.69;8692483;33;20230;-72
2021/01/03 13:59:22;;;;;;;14.70;7.10;;;;;;;4.86;79.76;100352.47;8716971;33;20226;-71
2021/01/03 14:04:26;;;;;;;11.83;7.03;;;;;;;4.76;79.49;100356.44;8713634;33;20683;-71
2021/01/03 14:09:28;;;;;;;15.37;7.13;;;;;;;4.74;79.81;100357.44;8717552;33;20240;-72
2021/01/03 14:14:31;;;;;;;13.30;6.43;;;;;;;4.72;79.53;100362.81;8717750;33;20478;-72
2021/01/03 14:19:34;;;;;;;13.73;6.30;;;;;;;4.75;80.04;100365.31;8717038;33;20239;-71
2021/01/03 14:24:37;;;;;;;15.70;7.47;;;;;;;4.71;80.13;100368.16;8717304;33;21044;-70
2021/01/03 14:29:39;;;;;;;17.60;8.73;;;;;;;4.72;80.50;100367.22;8716409;33;20321;-71
2021/01/03 14:34:47;;;;;;;14.70;6.93;;;;;;;4.65;80.16;100367.47;8716349;33;20578;-72
2021/01/03 14:39:54;;;;;;;16.53;8.20;;;;;;;4.71;80.47;100365.50;8714116;33;22931;-72
2021/01/03 14:45:00;;;;;;;15.27;6.40;;;;;;;4.68;80.30;100358.56;8711995;33;20176;-72
2021/01/03 14:50:24;;;;;;;11.50;6.93;;;;;;;4.63;80.50;100361.38;8715292;33;20211;-72
2021/01/03 14:55:50;;;;;;;12.30;6.53;;;;;;;4.65;80.40;100358.69;8715273;33;20521;-72
2021/01/03 15:00:53;;;;;;;19.10;9.60;;;;;;;4.58;80.61;100359.84;8685390;33;20571;-72
2021/01/03 15:06:27;;;;;;;21.80;12.37;;;;;;;4.53;80.80;100356.56;8713987;33;20274;-73
2021/01/03 15:11:29;;;;;;;18.63;8.30;;;;;;;4.48;81.12;100359.41;8712176;33;20409;-72
2021/01/03 15:16:32;;;;;;;19.57;9.27;;;;;;;4.47;80.68;100355.06;8715961;33;20171;-73
2021/01/03 15:21:38;;;;;;;15.57;6.70;;;;;;;4.49;81.09;100353.19;8713959;33;20454;-72
2021/01/03 15:26:48;;;;;;;16.47;6.93;;;;;;;4.49;81.18;100354.97;8713961;33;22046;-72
2021/01/03 15:31:56;;;;;;;11.97;6.80;;;;;;;4.46;81.11;100354.16;8715789;33;21492;-71
2021/01/03 15:37:31;;;;;;;12.57;6.83;;;;;;;4.46;81.24;100353.31;8713656;33;20183;-72
2021/01/03 15:42:41;;;;;;;14.53;6.83;;;;;;;4.52;81.30;100353.03;8713505;33;20689;-72
2021/01/03 15:47:45;;;;;;;11.40;5.90;;;;;;;4.48;81.12;100348.81;8711513;33;20194;-73
2021/01/03 15:52:50;;;;;;;11.60;6.03;;;;;;;4.48;81.27;100355.91;8715223;33;20261;-72
2021/01/03 15:57:52;;;;;;;10.03;5.23;;;;;;;4.29;80.97;100351.38;8712910;33;20245;-73
2021/01/03 16:02:58;;;;;;;14.40;7.17;;;;;;;4.22;81.33;100348.13;8713122;33;21086;-72
2021/01/03 16:08:07;;;;;;;11.40;5.77;;;;;;;4.24;81.20;100353.34;8713045;33;20253;-73
2021/01/03 16:13:09;;;;;;;31.10;12.83;;;;;;;4.23;81.22;100359.56;8694371;33;20614;-73
2021/01/03 16:18:16;;;;;;;33.27;14.80;;;;;;;4.13;81.00;100367.00;8719544;33;20696;-73
2021/01/03 16:23:48;;;;;;;19.97;9.50;;;;;;;4.07;81.49;100356.69;8719278;33;20194;-72
2021/01/03 16:29:19;;;;;;;22.53;10.17;;;;;;;4.07;81.65;100354.03;8719201;33;20431;-72
2021/01/03 16:34:52;;;;;;;14.07;7.10;;;;;;;4.08;81.66;100355.75;8654925;33;20351;-73
2021/01/03 16:40:11;;;;;;;10.23;6.20;;;;;;;4.06;81.33;100356.72;8660759;33;20576;-72
2021/01/03 16:45:36;;;;;;;16.33;7.23;;;;;;;4.05;81.63;100357.66;8714181;33;20270;-72
2021/01/03 16:50:43;;;;;;;12.47;6.07;;;;;;;4.05;81.40;100355.88;8718603;33;20222;-73
2021/01/03 16:55:56;;;;;;;11.93;5.60;;;;;;;4.07;81.95;100355.81;8683382;33;21042;-74
2021/01/03 17:01:17;;;;;;;10.07;5.97;;;;;;;4.11;81.50;100360.06;8693704;33;20184;-74
2021/01/03 17:06:29;;;;;;;9.23;5.67;;;;;;;4.09;81.74;100359.28;8719914;33;20713;-73
2021/01/03 17:11:53;;;;;;;9.67;5.30;;;;;;;4.18;81.82;100354.47;8694845;33;20354;-74
2021/01/03 17:17:04;;;;;;;8.60;5.47;;;;;;;4.15;81.65;100353.72;8716058;33;20690;-74
2021/01/03 17:22:21;;;;;;;12.93;6.13;;;;;;;4.21;81.53;100353.47;8719139;33;20500;-73
2021/01/03 17:28:18;;;;;;;8.50;5.40;;;;;;;4.25;81.83;100365.66;8718989;33;20708;-73
2021/01/03 17:33:33;;;;;;;11.60;5.40;;;;;;;4.16;81.90;100366.88;8689067;33;20536;-72
2021/01/03 17:38:43;;;;;;;9.37;5.67;;;;;;;4.14;81.93;100363.47;8718856;33;20282;-72
2021/01/03 17:43:53;;;;;;;9.37;5.63;;;;;;;4.12;81.50;100365.28;8675368;33;20155;-71
2021/01/03 17:49:11;;;;;;;10.20;4.93;;;;;;;4.04;81.59;100369.16;8719007;33;20196;-73
2021/01/03 17:54:17;;;;;;;12.20;5.73;;;;;;;4.00;81.92;100369.28;8693920;33;20144;-74
2021/01/03 17:59:33;;;;;;;9.63;6.30;;;;;;;4.06;82.11;100373.47;8718089;33;20229;-73
2021/01/03 18:04:37;;;;;;;15.40;6.63;;;;;;;4.07;81.91;100369.03;8693700;33;20975;-74
2021/01/03 18:09:41;;;;;;;13.80;6.67;;;;;;;4.09;81.72;100376.00;8717736;33;20528;-73
2021/01/03 18:14:44;;;;;;;32.47;12.77;;;;;;;4.13;82.04;100369.66;8694727;33;20206;-74
2021/01/03 18:19:47;;;;;;;16.00;8.47;;;;;;;4.17;82.02;100381.84;8717004;33;20183;-74
2021/01/03 18:24:53;;;;;;;20.57;8.80;;;;;;;4.15;81.89;100383.69;8717217;33;20190;-74
2021/01/03 18:29:57;;;;;;;12.60;6.00;;;;;;;4.18;81.87;100388.84;8715375;33;20834;-74
2021/01/03 18:34:59;;;;;;;8.97;4.80;;;;;;;4.15;81.73;100393.41;8717207;33;20712;-73
2021/01/03 18:40:01;;;;;;;15.43;7.27;;;;;;;4.14;81.94;100394.28;8690348;33;20266;-74
2021/01/03 18:45:07;;;;;;;13.87;6.83;;;;;;;4.14;81.88;100391.66;8716988;33;20194;-74
2021/01/03 18:50:17;;;;;;;8.33;5.00;;;;;;;4.09;81.56;100389.22;8716694;33;20921;-73
2021/01/03 18:55:20;;;;;;;13.93;6.33;;;;;;;4.09;81.71;100389.22;8717188;33;20415;-73
2021/01/03 19:00:24;;;;;;;8.37;5.00;;;;;;;4.11;81.93;100392.63;8716370;33;20231;-74
2021/01/03 19:05:27;;;;;;;8.53;5.40;;;;;;;4.12;81.96;100404.09;8729376;33;20830;-73
2021/01/03 19:10:29;;;;;;;9.57;5.13;;;;;;;4.15;81.80;100406.63;8712383;33;20883;-73
2021/01/03 19:15:32;;;;;;;9.30;5.20;;;;;;;4.18;81.69;100406.50;8724072;33;20197;-72
2021/01/03 19:20:35;;;;;;;6.50;4.13;;;;;;;4.15;81.67;100402.19;8715374;33;20581;-74
2021/01/03 19:25:37;;;;;;;6.57;4.70;;;;;;;4.19;81.91;100411.69;8715894;33;20675;-73
2021/01/03 19:30:41;;;;;;;9.40;4.77;;;;;;;4.16;81.87;100403.03;8690874;33;21160;-73
2021/01/03 19:35:43;;;;;;;7.83;4.27;;;;;;;4.19;81.81;100403.75;8704922;33;20191;-73
2021/01/03 19:40:46;;;;;;;22.90;8.27;;;;;;;4.18;82.01;100410.00;8607186;33;20225;-73
2021/01/03 19:45:49;;;;;;;15.43;6.53;;;;;;;4.18;81.86;100407.34;8600294;33;20223;-74
2021/01/03 19:50:52;;;;;;;12.17;6.53;;;;;;;4.20;81.50;100417.88;8599786;33;20287;-73
2021/01/03 19:55:54;;;;;;;8.77;4.70;;;;;;;4.11;81.61;100421.72;8600231;33;21949;-74
2021/01/03 20:00:57;;;;;;;12.83;5.57;;;;;;;4.14;81.67;100426.03;8594586;33;20196;-73
2021/01/03 20:06:02;;;;;;;16.97;7.77;;;;;;;4.13;81.96;100421.69;8599029;33;20442;-73
2021/01/03 20:11:05;;;;;;;16.03;7.23;;;;;;;4.10;81.56;100433.22;8599796;33;21208;-73
2021/01/03 20:16:08;;;;;;;8.00;4.80;;;;;;;4.11;81.68;100428.78;8600241;33;20795;-74
2021/01/03 20:21:13;;;;;;;9.40;5.10;;;;;;;4.00;81.51;100426.56;8597524;33;20197;-73
2021/01/03 20:26:15;;;;;;;14.97;6.77;;;;;;;3.90;81.59;100430.53;8597430;33;20195;-73
2021/01/03 20:31:23;;;;;;;15.30;7.00;;;;;;;3.90;81.54;100428.72;8573507;33;20196;-74
2021/01/03 20:36:27;;;;;;;8.97;5.03;;;;;;;3.90;81.59;100441.09;8573528;33;20185;-72
2021/01/03 20:41:29;;;;;;;8.20;4.63;;;;;;;3.97;81.82;100432.84;8595979;33;20953;-73
2021/01/03 20:46:32;;;;;;;10.95;5.80;;;;;;;3.98;81.73;100437.22;8597979;33;20078;-74
2021/01/03 20:51:34;;;;;;;8.97;5.00;;;;;;;3.93;81.79;100433.91;8599094;33;20231;-74
2021/01/03 20:56:37;;;;;;;7.83;4.50;;;;;;;3.93;81.74;100440.97;8601760;33;20511;-71
2021/01/03 21:01:41;;;;;;;7.80;4.37;;;;;;;3.84;81.34;100433.38;8572842;33;20745;-74
2021/01/03 21:06:47;;;;;;;9.67;5.93;;;;;;;3.86;81.83;100447.41;8577858;33;20192;-73
2021/01/03 21:11:50;;;;;;;13.60;5.70;;;;;;;3.87;81.72;100451.78;8601528;33;20223;-74
2021/01/03 21:16:53;;;;;;;8.70;5.00;;;;;;;3.83;81.47;100455.44;8602262;33;20196;-74
2021/01/03 21:21:58;;;;;;;9.13;5.30;;;;;;;3.87;81.43;100455.28;8600807;33;20283;-74
2021/01/03 21:27:27;;;;;;;9.90;5.13;;;;;;;3.84;81.50;100457.16;8612514;33;20172;-74
2021/01/03 21:32:39;;;;;;;10.10;5.80;;;;;;;3.78;81.11;100463.53;8611078;33;20502;-73
2021/01/03 21:38:28;;;;;;;9.30;5.77;;;;;;;3.85;81.34;100459.75;8602048;33;21571;-73
2021/01/03 21:43:51;;;;;;;7.23;5.20;;;;;;;3.84;81.28;100470.38;8502068;33;20495;-74
2021/01/03 21:49:07;;;;;;;11.83;6.07;;;;;;;3.82;81.28;100473.09;8575713;33;20142;-74
2021/01/03 21:54:31;;;;;;;14.43;7.60;;;;;;;3.90;81.65;100475.44;8599424;33;20446;-74
2021/01/03 22:00:22;;;;;;;9.70;5.85;;;;;;;3.84;81.01;100483.59;8577996;33;21674;-74
2021/01/03 22:06:07;;;;;;;9.53;5.87;;;;;;;3.74;81.08;100477.81;8594317;33;20149;-73
2021/01/03 22:11:34;;;;;;;14.43;6.80;;;;;;;3.78;81.67;100484.69;8590660;33;21808;-75
2021/01/03 22:16:44;;;;;;;17.93;8.53;;;;;;;3.82;81.62;100481.03;8602102;33;20838;-75
2021/01/03 22:22:11;;;;;;;10.07;5.73;;;;;;;3.81;81.41;100481.91;8602098;33;20683;-74
2021/01/03 22:27:28;;;;;;;10.10;5.40;;;;;;;3.82;81.48;100482.81;8602708;33;20158;-73
2021/01/03 22:32:31;;;;;;;11.63;6.07;;;;;;;3.83;81.49;100487.16;8602171;33;20150;-74
2021/01/03 22:37:59;;;;;;;7.30;5.07;;;;;;;3.84;81.83;100491.53;8602109;33;21660;-74
2021/01/03 22:43:37;;;;;;;13.83;6.50;;;;;;;3.82;81.59;100485.44;8601833;33;20142;-74
2021/01/03 22:49:29;;;;;;;8.50;5.77;;;;;;;3.76;81.34;100492.69;8601451;33;20821;-75
2021/01/03 22:54:53;;;;;;;7.90;5.27;;;;;;;3.82;81.56;100488.94;8560306;33;20195;-74
2021/01/03 23:00:26;;;;;;;9.93;5.50;;;;;;;3.79;81.37;100489.06;8601102;33;20777;-74
2021/01/03 23:05:47;;;;;;;9.00;5.73;;;;;;;3.72;81.18;100480.47;8601701;33;20642;-72
2021/01/03 23:10:50;;;;;;;9.00;5.50;;;;;;;3.60;81.20;100485.38;8601634;33;20176;-74
2021/01/03 23:15:57;;;;;;;8.00;5.20;;;;;;;3.69;81.04;100482.38;8601373;33;20437;-75
2021/01/03 23:21:06;;;;;;;6.53;5.00;;;;;;;3.74;81.33;100489.22;8601042;33;21679;-74
2021/01/03 23:26:14;;;;;;;11.87;5.20;;;;;;;3.67;80.80;100487.72;8576003;33;20594;-74
2021/01/03 23:31:20;;;;;;;8.47;5.07;;;;;;;3.72;81.19;100491.06;8601316;33;21478;-74
2021/01/03 23:36:31;;;;;;;16.90;7.30;;;;;;;3.64;80.86;100487.84;8600984;33;20969;-74
2021/01/03 23:41:38;;;;;;;13.00;5.90;;;;;;;3.67;80.94;100490.34;8601589;33;21106;-73
2021/01/03 23:47:02;;;;;;;11.47;5.47;;;;;;;3.68;80.97;100489.47;8600741;33;20284;-74
2021/01/03 23:52:23;;;;;;;7.00;4.73;;;;;;;3.71;80.97;100480.56;8600079;33;21092;-73
2021/01/03 23:57:49;;;;;;;9.77;5.50;;;;;;;3.67;81.02;100479.78;8600357;33;20576;-73
